createdAt,value
2022-10-06T00:02:23.470Z,84.10
2022-10-06T00:05:08.960Z,83.80
2022-10-06T00:07:57.395Z,83.50
2022-10-06T00:10:42.455Z,83.50
2022-10-06T00:13:29.592Z,83.50
2022-10-06T00:16:21.615Z,83.10
2022-10-06T00:19:07.473Z,82.90
2022-10-06T00:21:53.298Z,82.80
2022-10-06T00:24:38.670Z,82.90
2022-10-06T00:27:24.149Z,82.60
2022-10-06T00:30:12.729Z,81.80
2022-10-06T00:33:02.967Z,81.60
2022-10-06T00:35:48.671Z,81.00
2022-10-06T00:38:35.011Z,80.60
2022-10-06T00:41:20.560Z,80.40
2022-10-06T00:44:06.085Z,80.30
2022-10-06T00:46:53.805Z,80.30
2022-10-06T00:49:39.679Z,80.80
2022-10-06T00:52:29.269Z,81.00
2022-10-06T00:55:15.099Z,81.10
2022-10-06T00:58:01.575Z,81.20
2022-10-06T01:00:50.461Z,81.00
2022-10-06T01:03:39.748Z,81.20
2022-10-06T01:06:29.306Z,81.50
2022-10-06T01:09:18.667Z,81.10
2022-10-06T01:12:07.647Z,81.00
2022-10-06T01:14:53.500Z,80.40
2022-10-06T01:17:41.735Z,80.10
2022-10-06T01:20:29.321Z,79.70
2022-10-06T01:23:14.961Z,79.40
2022-10-06T01:26:03.648Z,79.10
2022-10-06T01:28:49.496Z,78.80
2022-10-06T01:31:35.494Z,78.70
2022-10-06T01:34:20.782Z,78.70
2022-10-06T01:37:05.992Z,78.80
2022-10-06T01:39:52.211Z,78.90
2022-10-06T01:42:38.831Z,79.00
2022-10-06T01:45:24.168Z,79.90
2022-10-06T01:48:09.935Z,79.20
2022-10-06T01:50:55.428Z,79.20
2022-10-06T01:53:40.509Z,79.30
2022-10-06T01:56:26.012Z,79.50
2022-10-06T01:59:11.419Z,80.40
2022-10-06T02:01:56.746Z,79.80
2022-10-06T02:04:41.920Z,80.00
2022-10-06T02:07:27.332Z,80.10
2022-10-06T02:10:12.772Z,80.00
2022-10-06T02:12:58.099Z,79.90
2022-10-06T02:15:43.456Z,80.20
2022-10-06T02:18:29.056Z,80.20
2022-10-06T02:21:17.849Z,80.10
2022-10-06T02:24:03.314Z,80.50
2022-10-06T02:26:48.608Z,80.60
2022-10-06T02:29:34.420Z,80.10
2022-10-06T02:32:21.012Z,79.90
2022-10-06T02:35:06.959Z,80.50
2022-10-06T02:37:52.690Z,80.50
2022-10-06T02:40:39.799Z,79.80
2022-10-06T02:43:31.769Z,80.30
2022-10-06T02:46:22.513Z,80.90
2022-10-06T02:49:09.569Z,81.00
2022-10-06T02:51:54.811Z,81.00
2022-10-06T02:54:40.346Z,80.90
2022-10-06T02:57:31.168Z,81.30
2022-10-06T03:00:18.275Z,81.70
2022-10-06T03:03:06.489Z,82.20
2022-10-06T03:06:03.242Z,82.10
2022-10-06T03:08:54.820Z,82.50
2022-10-06T03:11:45.142Z,82.90
2022-10-06T03:14:35.361Z,83.30
2022-10-06T03:17:21.898Z,83.50
2022-10-06T03:20:11.883Z,83.60
2022-10-06T03:22:57.647Z,83.50
2022-10-06T03:25:42.963Z,83.90
2022-10-06T03:28:30.550Z,83.50
2022-10-06T03:31:18.021Z,83.60
2022-10-06T03:34:04.760Z,84.00
2022-10-06T03:36:50.307Z,84.00
2022-10-06T03:39:39.476Z,83.00
2022-10-06T03:42:24.931Z,83.20
2022-10-06T03:45:14.317Z,83.20
2022-10-06T03:48:00.687Z,82.90
2022-10-06T03:51:01.054Z,82.60
2022-10-06T03:53:48.627Z,82.60
2022-10-06T03:56:37.098Z,82.40
2022-10-06T03:59:23.291Z,82.20
2022-10-06T04:02:11.192Z,82.30
2022-10-06T04:04:56.558Z,82.40
2022-10-06T04:07:44.952Z,82.10
2022-10-06T04:10:30.172Z,82.60
2022-10-06T04:13:17.366Z,83.00
2022-10-06T04:16:12.786Z,82.40
2022-10-06T04:18:59.231Z,82.50
2022-10-06T04:21:46.888Z,82.70
2022-10-06T04:24:35.407Z,82.50
2022-10-06T04:27:30.345Z,82.20
2022-10-06T04:30:26.408Z,82.30
2022-10-06T04:33:12.008Z,82.30
2022-10-06T04:36:03.268Z,82.20
2022-10-06T04:38:50.327Z,82.90
2022-10-06T04:41:38.153Z,82.90
2022-10-06T04:44:24.368Z,83.10
2022-10-06T04:47:11.460Z,83.30
2022-10-06T04:49:57.633Z,83.50
2022-10-06T04:52:43.149Z,83.70
2022-10-06T04:55:29.411Z,83.70
2022-10-06T04:58:15.092Z,84.30
2022-10-06T05:01:05.651Z,84.50
2022-10-06T05:03:56.347Z,84.70
2022-10-06T05:06:42.862Z,84.70
2022-10-06T05:09:29.411Z,84.80
2022-10-06T05:12:14.927Z,84.60
2022-10-06T05:15:00.721Z,85.00
2022-10-06T05:17:46.025Z,85.10
2022-10-06T05:20:36.599Z,85.80
2022-10-06T05:23:22.404Z,85.90
2022-10-06T05:26:10.234Z,85.90
2022-10-06T05:28:55.514Z,86.00
2022-10-06T05:31:43.398Z,85.90
2022-10-06T05:34:32.808Z,86.20
2022-10-06T05:37:18.500Z,86.20
2022-10-06T05:43:03.518Z,86.60
2022-10-06T05:45:57.129Z,86.70
2022-10-06T05:48:47.544Z,86.70
2022-10-06T05:51:35.102Z,86.70
2022-10-06T05:54:24.748Z,86.60
2022-10-06T05:57:09.996Z,86.90
2022-10-06T05:59:55.346Z,87.00
2022-10-06T06:02:40.788Z,87.30
2022-10-06T06:05:27.281Z,87.30
2022-10-06T06:08:12.483Z,87.20
2022-10-06T06:11:07.520Z,87.40
2022-10-06T06:13:55.768Z,87.70
2022-10-06T06:16:43.410Z,87.80
2022-10-06T06:19:29.262Z,87.40
2022-10-06T06:22:14.791Z,87.60
2022-10-06T06:25:02.081Z,88.00
2022-10-06T06:27:48.089Z,87.70
2022-10-06T06:30:35.275Z,87.90
2022-10-06T06:33:22.579Z,88.00
2022-10-06T06:36:20.117Z,87.80
2022-10-06T06:39:08.432Z,88.10
2022-10-06T06:41:54.275Z,88.00
2022-10-06T06:45:15.008Z,88.00
2022-10-06T06:48:19.316Z,87.90
2022-10-06T06:51:09.684Z,87.90
2022-10-06T06:53:55.105Z,87.60
2022-10-06T06:56:44.588Z,87.70
2022-10-06T06:59:32.980Z,88.00
2022-10-06T07:02:18.831Z,88.00
2022-10-06T07:05:06.713Z,88.00
2022-10-06T07:07:52.605Z,88.10
2022-10-06T07:10:38.109Z,88.20
2022-10-06T07:13:25.620Z,87.90
2022-10-06T07:16:35.481Z,88.00
2022-10-06T07:19:40.364Z,88.10
2022-10-06T07:22:47.290Z,88.00
2022-10-06T07:25:36.639Z,88.00
2022-10-06T07:28:26.808Z,87.80
2022-10-06T07:31:19.121Z,87.70
2022-10-06T07:34:06.492Z,87.70
2022-10-06T07:36:53.968Z,87.70
2022-10-06T07:39:44.465Z,87.60
2022-10-06T07:42:29.536Z,87.30
2022-10-06T07:45:39.658Z,87.20
2022-10-06T07:48:33.980Z,87.00
2022-10-06T07:51:21.660Z,86.70
2022-10-06T07:54:08.842Z,86.40
2022-10-06T07:57:13.136Z,86.00
2022-10-06T08:00:02.780Z,85.20
2022-10-06T08:02:57.280Z,84.80
2022-10-06T08:05:42.726Z,83.90
2022-10-06T08:08:31.423Z,83.80
2022-10-06T08:11:21.012Z,82.70
2022-10-06T08:14:06.258Z,82.70
2022-10-06T08:16:56.605Z,82.10
2022-10-06T08:19:42.106Z,81.70
2022-10-06T08:22:30.084Z,81.60
2022-10-06T08:25:16.246Z,80.50
2022-10-06T08:28:02.078Z,80.70
2022-10-06T08:30:51.148Z,79.50
2022-10-06T08:33:40.383Z,79.10
2022-10-06T08:36:31.348Z,78.60
2022-10-06T08:39:20.240Z,77.90
2022-10-06T08:42:06.051Z,78.10
2022-10-06T08:45:06.603Z,77.80
2022-10-06T08:48:10.221Z,77.00
2022-10-06T08:51:18.719Z,75.50
2022-10-06T08:54:14.799Z,75.60
2022-10-06T08:57:20.707Z,74.50
2022-10-06T09:00:13.138Z,74.10
2022-10-06T09:03:00.327Z,73.50
2022-10-06T09:05:46.624Z,71.40
2022-10-06T09:08:53.793Z,70.10
2022-10-06T09:11:49.995Z,69.60
2022-10-06T09:14:52.720Z,68.70
2022-10-06T09:17:42.450Z,68.30
2022-10-06T09:20:57.133Z,68.20
2022-10-06T09:23:48.366Z,67.30
2022-10-06T09:26:34.486Z,66.20
2022-10-06T09:29:19.843Z,66.70
2022-10-06T09:32:06.878Z,65.10
2022-10-06T09:34:59.669Z,64.50
2022-10-06T09:38:08.171Z,63.80
2022-10-06T09:40:55.551Z,63.20
2022-10-06T09:43:51.706Z,63.50
2022-10-06T09:46:41.761Z,64.00
2022-10-06T09:49:31.439Z,65.30
2022-10-06T09:52:17.272Z,65.30
2022-10-06T09:55:18.727Z,65.10
2022-10-06T09:58:23.464Z,65.20
2022-10-06T10:01:11.717Z,65.20
2022-10-06T10:04:22.682Z,66.10
2022-10-06T10:07:43.099Z,66.30
2022-10-06T10:10:29.731Z,66.50
2022-10-06T10:13:24.462Z,65.50
2022-10-06T10:16:21.137Z,65.90
2022-10-06T10:19:10.394Z,65.70
2022-10-06T10:22:00.129Z,65.60
2022-10-06T10:25:27.067Z,65.50
2022-10-06T10:28:23.793Z,64.60
2022-10-06T10:31:27.739Z,64.00
2022-10-06T10:34:25.141Z,64.30
2022-10-06T10:37:14.766Z,62.80
2022-10-06T10:40:28.628Z,62.50
2022-10-06T10:43:34.564Z,61.50
2022-10-06T10:46:35.273Z,61.50
2022-10-06T10:49:30.242Z,61.50
2022-10-06T10:52:41.777Z,61.40
2022-10-06T10:55:40.795Z,61.30
2022-10-06T10:58:33.250Z,60.50
2022-10-06T11:01:28.353Z,59.60
2022-10-06T11:04:14.507Z,59.00
2022-10-06T11:07:33.229Z,57.70
2022-10-06T11:10:23.336Z,57.60
2022-10-06T11:13:28.520Z,57.70
2022-10-06T11:16:32.338Z,56.90
2022-10-06T11:19:18.029Z,55.10
2022-10-06T11:22:22.951Z,54.00
2022-10-06T11:25:35.250Z,53.20
2022-10-06T11:28:27.110Z,50.80
2022-10-06T11:31:34.223Z,48.10
2022-10-06T11:34:19.868Z,48.30
2022-10-06T11:37:30.309Z,45.70
2022-10-06T11:41:10.655Z,43.50
2022-10-06T11:44:32.494Z,42.80
2022-10-06T11:47:35.102Z,40.90
2022-10-06T11:50:37.773Z,39.50
2022-10-06T11:53:32.179Z,35.60
2022-10-06T11:56:17.684Z,34.70
2022-10-06T11:59:10.942Z,34.30
2022-10-06T12:02:01.274Z,33.90
2022-10-06T12:05:28.561Z,35.70
2022-10-06T12:08:16.798Z,34.60
2022-10-06T12:11:02.488Z,33.20
2022-10-06T12:15:06.439Z,33.50
2022-10-06T12:17:18.277Z,32.10
2022-10-06T12:20:35.110Z,32.70
2022-10-06T12:24:00.055Z,31.50
2022-10-06T12:27:08.041Z,30.50
2022-10-06T12:30:21.064Z,31.70
2022-10-06T12:33:17.444Z,31.60
2022-10-06T12:36:04.890Z,29.90
2022-10-06T12:39:22.496Z,29.20
2022-10-06T12:42:27.189Z,29.60
2022-10-06T12:45:16.818Z,29.40
2022-10-06T12:48:13.416Z,29.30
2022-10-06T12:51:02.963Z,29.80
2022-10-06T12:54:03.867Z,29.90
2022-10-06T12:57:15.056Z,30.00
2022-10-06T13:00:04.576Z,30.40
2022-10-06T13:02:54.140Z,31.30
2022-10-06T13:05:39.865Z,30.80
2022-10-06T13:08:33.855Z,31.00
2022-10-06T13:11:22.199Z,30.10
2022-10-06T13:14:12.859Z,30.50
2022-10-06T13:17:02.519Z,29.60
2022-10-06T13:19:48.917Z,29.20
2022-10-06T13:22:35.173Z,28.50
2022-10-06T13:25:20.280Z,28.40
2022-10-06T13:28:05.942Z,27.60
2022-10-06T13:30:53.064Z,27.40
2022-10-06T13:33:41.194Z,27.00
2022-10-06T13:36:29.468Z,26.30
2022-10-06T13:39:29.456Z,27.90
2022-10-06T13:42:18.320Z,28.90
2022-10-06T13:45:04.852Z,29.40
2022-10-06T13:48:07.515Z,28.40
2022-10-06T13:50:53.380Z,26.70
2022-10-06T13:53:39.661Z,26.20
2022-10-06T13:56:32.447Z,25.50
2022-10-06T13:59:30.109Z,24.90
2022-10-06T14:02:24.244Z,25.40
2022-10-06T14:05:34.528Z,25.90
2022-10-06T14:08:24.346Z,25.60
2022-10-06T14:11:10.791Z,25.40
2022-10-06T14:13:57.488Z,25.40
2022-10-06T14:16:51.399Z,25.40
2022-10-06T14:19:40.835Z,25.40
2022-10-06T14:22:36.685Z,25.80
2022-10-06T14:25:25.216Z,26.10
2022-10-06T14:28:10.758Z,26.80
2022-10-06T14:30:59.649Z,26.80
2022-10-06T14:33:47.230Z,26.40
2022-10-06T14:36:36.162Z,26.60
2022-10-06T14:39:21.347Z,25.60
2022-10-06T14:42:07.369Z,26.40
2022-10-06T14:44:52.388Z,26.40
2022-10-06T14:47:37.779Z,26.80
2022-10-06T14:50:23.500Z,26.20
2022-10-06T14:53:10.989Z,26.00
2022-10-06T14:56:08.884Z,25.30
2022-10-06T14:58:54.423Z,24.70
2022-10-06T15:01:40.589Z,24.80
2022-10-06T15:04:27.651Z,24.80
2022-10-06T15:07:31.387Z,24.50
2022-10-06T15:10:16.767Z,24.00
2022-10-06T15:13:02.325Z,24.10
2022-10-06T15:15:47.536Z,24.50
2022-10-06T15:18:33.436Z,25.10
2022-10-06T15:21:26.587Z,25.20
2022-10-06T15:24:14.260Z,25.40
2022-10-06T15:27:22.404Z,25.50
2022-10-06T15:30:11.274Z,25.70
2022-10-06T15:32:56.212Z,26.20
2022-10-06T15:35:45.430Z,26.40
2022-10-06T15:38:38.397Z,26.10
2022-10-06T15:41:23.980Z,26.20
2022-10-06T15:44:10.340Z,26.30
2022-10-06T15:46:56.358Z,26.90
2022-10-06T15:49:42.038Z,26.60
2022-10-06T15:52:29.462Z,27.50
2022-10-06T15:55:14.955Z,27.90
2022-10-06T15:58:00.517Z,27.80
2022-10-06T16:00:45.901Z,28.70
2022-10-06T16:03:41.385Z,29.00
2022-10-06T16:06:41.532Z,29.40
2022-10-06T16:09:30.595Z,29.90
2022-10-06T16:12:21.824Z,30.00
2022-10-06T16:15:07.316Z,31.60
2022-10-06T16:17:52.439Z,33.20
2022-10-06T16:20:39.290Z,34.40
2022-10-06T16:23:24.865Z,35.30
2022-10-06T16:26:10.207Z,36.70
2022-10-06T16:28:55.691Z,37.50
2022-10-06T16:31:41.406Z,38.70
2022-10-06T16:34:26.569Z,39.30
2022-10-06T16:37:12.008Z,39.60
2022-10-06T16:39:57.264Z,40.80
2022-10-06T16:42:44.263Z,42.70
2022-10-06T16:45:29.342Z,43.60
2022-10-06T16:48:14.605Z,44.20
2022-10-06T16:51:13.168Z,44.70
2022-10-06T16:54:03.185Z,45.80
2022-10-06T16:56:52.045Z,46.70
2022-10-06T16:59:42.113Z,48.10
2022-10-06T17:02:32.592Z,49.20
2022-10-06T17:05:18.040Z,50.80
2022-10-06T17:08:03.363Z,52.30
2022-10-06T17:10:59.883Z,53.30
2022-10-06T17:13:46.270Z,54.60
2022-10-06T17:16:35.057Z,55.90
2022-10-06T17:19:26.521Z,56.90
2022-10-06T17:22:15.792Z,57.70
2022-10-06T17:25:01.370Z,58.90
2022-10-06T17:27:46.591Z,59.60
2022-10-06T17:30:32.068Z,60.40
2022-10-06T17:33:17.324Z,61.40
2022-10-06T17:36:11.587Z,62.10
2022-10-06T17:39:01.401Z,62.90
2022-10-06T17:41:48.440Z,63.50
2022-10-06T17:44:33.785Z,64.50
2022-10-06T17:47:19.243Z,65.00
2022-10-06T17:50:04.696Z,65.70
2022-10-06T17:52:50.113Z,66.20
2022-10-06T17:55:36.587Z,67.00
2022-10-06T17:58:22.334Z,67.50
2022-10-06T18:01:17.667Z,68.10
2022-10-06T18:04:05.416Z,68.80
2022-10-06T18:06:54.864Z,69.00
2022-10-06T18:10:02.094Z,69.40
2022-10-06T18:12:47.927Z,69.80
2022-10-06T18:15:37.136Z,70.00
2022-10-06T18:18:25.136Z,69.90
2022-10-06T18:21:10.861Z,70.50
2022-10-06T18:23:57.913Z,71.30
2022-10-06T18:26:44.392Z,72.40
2022-10-06T18:29:32.691Z,73.40
2022-10-06T18:38:34.605Z,75.20
2022-10-06T18:41:20.104Z,76.00
2022-10-06T18:44:05.742Z,76.60
2022-10-06T18:47:09.663Z,76.90
2022-10-06T18:49:55.040Z,76.80
2022-10-06T18:52:40.333Z,77.30
2022-10-06T18:55:27.755Z,77.70
2022-10-06T18:58:16.109Z,78.00
2022-10-06T19:01:04.733Z,78.20
2022-10-06T19:03:50.542Z,78.50
2022-10-06T19:06:38.669Z,79.00
2022-10-06T19:09:25.375Z,79.10
2022-10-06T19:12:10.627Z,79.70
2022-10-06T19:14:57.127Z,80.00
2022-10-06T19:17:45.730Z,80.20
2022-10-06T19:20:32.133Z,80.40
2022-10-06T19:23:17.436Z,80.80
2022-10-06T19:26:07.700Z,81.30
2022-10-06T19:28:53.890Z,81.50
2022-10-06T19:31:41.714Z,82.90
2022-10-06T19:34:27.426Z,82.50
2022-10-06T19:37:14.097Z,82.50
2022-10-06T19:40:02.486Z,82.70
2022-10-06T19:42:47.863Z,82.40
2022-10-06T19:45:33.311Z,82.80
2022-10-06T19:48:20.125Z,83.10
2022-10-06T19:51:14.157Z,83.30
2022-10-06T19:54:00.433Z,83.20
2022-10-06T19:56:46.785Z,83.40
2022-10-06T19:59:32.867Z,84.20
2022-10-06T20:02:18.347Z,84.20
2022-10-06T20:05:16.839Z,84.30
2022-10-06T20:08:03.903Z,84.20
2022-10-06T20:10:49.148Z,84.40
2022-10-06T20:13:38.232Z,85.30
2022-10-06T20:16:23.807Z,85.60
2022-10-06T20:19:11.580Z,85.90
2022-10-06T20:21:56.912Z,85.80
2022-10-06T20:24:42.609Z,85.20
2022-10-06T20:27:28.140Z,85.80
2022-10-06T20:30:13.899Z,85.90
2022-10-06T20:33:00.543Z,86.10
2022-10-06T20:35:48.533Z,86.50
2022-10-06T20:38:52.551Z,86.80
2022-10-06T20:41:38.469Z,86.80
2022-10-06T20:44:25.098Z,86.30
2022-10-06T20:47:12.394Z,86.30
2022-10-06T20:49:57.713Z,86.70
2022-10-06T20:52:43.418Z,87.30
2022-10-06T20:55:28.969Z,87.80
2022-10-06T20:58:14.610Z,88.00
2022-10-06T21:01:13.770Z,88.10
2022-10-06T21:03:59.097Z,88.60
2022-10-06T21:06:44.829Z,88.90
2022-10-06T21:09:31.224Z,88.60
2022-10-06T21:12:16.366Z,88.90
2022-10-06T21:15:02.104Z,89.20
2022-10-06T21:17:48.320Z,89.00
2022-10-06T21:20:35.105Z,89.00
2022-10-06T21:23:21.041Z,89.80
2022-10-06T21:26:07.877Z,90.00
2022-10-06T21:28:54.438Z,90.00
2022-10-06T21:31:44.115Z,90.10
2022-10-06T21:34:29.615Z,90.10
2022-10-06T21:37:15.164Z,90.20
2022-10-06T21:40:02.555Z,90.10
2022-10-06T21:42:48.197Z,90.10
2022-10-06T21:45:33.970Z,90.10
2022-10-06T21:48:19.506Z,90.30
2022-10-06T21:51:04.726Z,90.20
2022-10-06T21:53:51.553Z,90.30
2022-10-06T21:56:37.081Z,90.40
2022-10-06T21:59:22.306Z,90.50
2022-10-06T22:02:07.768Z,90.60
2022-10-06T22:04:56.191Z,90.60
2022-10-06T22:07:47.591Z,90.70
2022-10-06T22:10:33.183Z,90.80
2022-10-06T22:13:18.789Z,90.90
2022-10-06T22:16:04.411Z,90.90
2022-10-06T22:18:50.615Z,91.00
2022-10-06T22:21:39.001Z,91.10
2022-10-06T22:24:24.340Z,91.10
2022-10-06T22:27:09.791Z,91.20
2022-10-06T22:29:58.238Z,91.40
2022-10-06T22:32:43.952Z,91.40
2022-10-06T22:35:29.560Z,91.60
2022-10-06T22:38:18.264Z,91.60
2022-10-06T22:41:09.070Z,91.70
2022-10-06T22:44:00.322Z,91.70
2022-10-06T22:46:48.316Z,91.80
2022-10-06T22:49:33.802Z,91.80
2022-10-06T22:52:19.270Z,91.90
2022-10-06T22:55:05.211Z,92.10
2022-10-06T22:57:50.890Z,92.00
2022-10-06T23:00:36.408Z,92.20
2022-10-06T23:03:22.360Z,92.20
2022-10-06T23:06:10.184Z,92.30
2022-10-06T23:08:55.311Z,92.30
2022-10-06T23:11:40.810Z,92.60
2022-10-06T23:14:29.012Z,92.20
2022-10-06T23:17:14.621Z,92.10
2022-10-06T23:20:00.289Z,92.20
2022-10-06T23:22:45.550Z,92.30
2022-10-06T23:25:31.422Z,92.30
2022-10-06T23:28:16.696Z,92.20
2022-10-06T23:31:05.058Z,92.10
2022-10-06T23:33:50.335Z,92.00
2022-10-06T23:36:35.989Z,91.80
2022-10-06T23:39:21.534Z,91.90
2022-10-06T23:42:11.928Z,91.70
2022-10-06T23:44:57.163Z,91.70
2022-10-06T23:47:43.102Z,91.70
2022-10-06T23:50:28.756Z,91.80
2022-10-06T23:53:14.179Z,91.70
2022-10-06T23:55:59.953Z,91.70
2022-10-06T23:58:45.422Z,91.70
